createdAt,value
2023-05-21T00:04:59.398Z,2.65
2023-05-21T00:10:03.057Z,2.35
2023-05-21T00:15:08.082Z,2.40
2023-05-21T00:20:13.226Z,3.25
2023-05-21T00:25:16.151Z,2.95
2023-05-21T00:30:18.625Z,2.95
2023-05-21T00:35:21.731Z,2.80
2023-05-21T00:40:24.666Z,3.10
2023-05-21T00:45:27.378Z,2.80
2023-05-21T00:50:32.243Z,2.53
2023-05-21T00:55:40.389Z,2.45
2023-05-21T01:00:43.464Z,2.88
2023-05-21T01:05:47.030Z,2.05
2023-05-21T01:10:50.440Z,2.35
2023-05-21T01:15:54.047Z,2.92
2023-05-21T01:20:56.859Z,2.05
2023-05-21T01:25:59.738Z,2.00
2023-05-21T01:31:19.038Z,2.20
2023-05-21T01:36:27.903Z,2.10
2023-05-21T01:41:37.333Z,1.77
2023-05-21T01:46:41.311Z,1.95
2023-05-21T01:51:45.592Z,2.35
2023-05-21T01:56:48.156Z,2.30
2023-05-21T02:01:51.467Z,2.30
2023-05-21T02:06:55.059Z,2.45
2023-05-21T02:11:58.479Z,3.10
2023-05-21T02:17:01.358Z,2.08
2023-05-21T02:22:04.430Z,2.47
2023-05-21T02:27:07.388Z,2.95
2023-05-21T02:32:11.971Z,2.60
2023-05-21T02:37:14.999Z,3.10
2023-05-21T02:42:17.783Z,2.80
2023-05-21T02:47:20.811Z,2.67
2023-05-21T02:52:24.148Z,2.15
2023-05-21T02:57:28.345Z,2.10
2023-05-21T03:02:32.161Z,2.13
2023-05-21T03:07:34.645Z,2.40
2023-05-21T03:12:38.746Z,1.95
2023-05-21T03:17:42.580Z,2.47
2023-05-21T03:22:46.029Z,2.08
2023-05-21T03:27:48.631Z,2.17
2023-05-21T03:33:15.140Z,2.85
2023-05-21T03:48:27.239Z,2.35
2023-05-21T03:53:30.404Z,3.10
2023-05-21T03:58:33.133Z,2.90
2023-05-21T04:03:37.840Z,2.10
2023-05-21T04:08:43.489Z,2.05
2023-05-21T04:13:46.336Z,1.73
2023-05-21T04:18:49.874Z,2.55
2023-05-21T04:23:54.569Z,2.15
2023-05-21T04:29:05.718Z,2.08
2023-05-21T04:34:08.142Z,3.13
2023-05-21T04:39:10.681Z,6.25
2023-05-21T04:44:15.323Z,4.15
2023-05-21T04:49:21.901Z,4.03
2023-05-21T04:54:24.838Z,3.15
2023-05-21T04:59:27.325Z,2.35
2023-05-21T05:04:29.904Z,4.40
2023-05-21T05:09:32.562Z,1.67
2023-05-21T05:14:36.538Z,1.40
2023-05-21T05:19:40.026Z,2.28
2023-05-21T05:24:43.588Z,2.00
2023-05-21T05:29:46.578Z,1.92
2023-05-21T05:34:50.089Z,1.10
2023-05-21T05:39:53.225Z,1.60
2023-05-21T05:44:57.127Z,1.50
2023-05-21T05:50:00.744Z,1.30
2023-05-21T05:55:09.120Z,2.33
2023-05-21T06:00:14.400Z,1.80
2023-05-21T06:05:20.739Z,1.35
2023-05-21T06:10:27.068Z,2.20
2023-05-21T06:15:30.766Z,1.52
2023-05-21T06:20:33.933Z,3.00
2023-05-21T06:25:36.849Z,1.50
2023-05-21T06:30:42.792Z,2.42
2023-05-21T06:35:45.760Z,3.00
2023-05-21T06:40:48.825Z,2.83
2023-05-21T06:46:05.245Z,2.53
2023-05-21T06:51:16.216Z,3.17
2023-05-21T06:56:19.495Z,2.83
2023-05-21T07:01:23.899Z,2.40
2023-05-21T07:06:26.898Z,1.90
2023-05-21T07:11:31.206Z,2.83
2023-05-21T07:16:35.053Z,2.33
2023-05-21T07:21:38.218Z,2.45
2023-05-21T07:26:42.799Z,3.50
2023-05-21T07:31:46.577Z,2.85
2023-05-21T07:36:49.176Z,1.50
2023-05-21T07:41:52.117Z,2.05
2023-05-21T07:46:56.356Z,2.08
2023-05-21T07:51:59.279Z,2.08
2023-05-21T07:57:03.797Z,2.90
2023-05-21T08:02:30.614Z,2.55
2023-05-21T08:07:33.964Z,2.20
2023-05-21T08:12:36.611Z,2.35
2023-05-21T08:22:45.098Z,1.75
2023-05-21T08:27:49.460Z,1.30
2023-05-21T08:32:54.367Z,1.77
2023-05-21T08:37:58.945Z,1.40
2023-05-21T08:43:15.326Z,2.70
2023-05-21T08:48:23.860Z,2.13
2023-05-21T08:53:29.896Z,1.73
2023-05-21T08:58:34.834Z,1.90
2023-05-21T09:03:40.780Z,1.45
2023-05-21T09:08:50.756Z,1.33
2023-05-21T09:14:11.693Z,1.70
2023-05-21T09:19:30.962Z,1.45
2023-05-21T09:24:36.337Z,1.52
2023-05-21T09:29:42.600Z,1.13
2023-05-21T09:34:44.955Z,1.42
2023-05-21T09:39:49.339Z,1.92
2023-05-21T09:44:53.358Z,1.70
2023-05-21T09:49:58.983Z,1.98
2023-05-21T09:55:02.170Z,1.63
2023-05-21T10:00:09.176Z,1.83
2023-05-21T10:05:17.919Z,1.08
2023-05-21T10:10:23.385Z,1.33
2023-05-21T10:15:28.751Z,1.70
2023-05-21T10:20:32.170Z,2.03
2023-05-21T10:25:36.377Z,1.05
2023-05-21T10:30:40.091Z,1.08
2023-05-21T10:35:43.560Z,1.88
2023-05-21T10:40:47.333Z,1.48
2023-05-21T10:46:09.556Z,1.30
2023-05-21T10:51:29.601Z,1.40
2023-05-21T10:56:44.379Z,1.63
2023-05-21T11:01:47.657Z,1.88
2023-05-21T11:06:50.188Z,1.42
2023-05-21T11:11:58.798Z,1.65
2023-05-21T11:17:03.319Z,1.83
2023-05-21T11:27:10.798Z,1.40
2023-05-21T11:32:16.156Z,1.40
2023-05-21T11:37:25.252Z,1.13
2023-05-21T11:42:32.988Z,2.15
2023-05-21T11:47:36.708Z,2.22
2023-05-21T11:52:40.893Z,2.00
2023-05-21T11:57:45.178Z,2.33
2023-05-21T12:02:51.903Z,2.75
2023-05-21T12:07:56.374Z,1.75
2023-05-21T12:23:05.399Z,1.00
2023-05-21T12:28:09.096Z,1.05
2023-05-21T12:33:12.947Z,1.00
2023-05-21T12:38:16.655Z,1.42
2023-05-21T12:43:19.512Z,0.75
2023-05-21T12:48:22.844Z,0.82
2023-05-21T12:53:25.858Z,0.90
2023-05-21T12:58:28.677Z,0.90
2023-05-21T13:03:32.798Z,1.13
2023-05-21T13:08:35.642Z,2.33
2023-05-21T13:13:38.841Z,2.33
2023-05-21T13:18:41.382Z,0.95
2023-05-21T13:23:44.897Z,1.10
2023-05-21T13:28:48.389Z,0.90
2023-05-21T13:33:51.851Z,1.52
2023-05-21T13:38:57.200Z,1.08
2023-05-21T13:44:00.208Z,1.05
2023-05-21T13:49:04.282Z,1.13
2023-05-21T13:59:09.860Z,1.58
2023-05-21T14:04:13.539Z,2.00
2023-05-21T14:09:16.432Z,3.00
2023-05-21T14:14:19.512Z,2.45
2023-05-21T14:19:24.194Z,1.73
2023-05-21T14:24:26.671Z,1.95
2023-05-21T14:29:29.645Z,1.45
2023-05-21T14:34:32.123Z,0.65
2023-05-21T14:39:35.165Z,0.85
2023-05-21T14:44:37.585Z,0.70
2023-05-21T14:49:40.661Z,0.65
2023-05-21T14:54:44.082Z,0.80
2023-05-21T14:59:47.026Z,0.77
2023-05-21T15:04:49.423Z,0.80
2023-05-21T15:09:52.393Z,0.80
2023-05-21T15:14:54.705Z,0.75
2023-05-21T15:19:59.061Z,0.75
2023-05-21T15:25:02.529Z,0.90
2023-05-21T15:30:07.843Z,0.80
2023-05-21T15:35:10.603Z,0.88
2023-05-21T15:40:15.185Z,0.88
2023-05-21T15:45:18.117Z,1.05
2023-05-21T15:50:21.313Z,1.05
2023-05-21T15:55:23.738Z,1.05
2023-05-21T16:00:26.151Z,1.17
2023-05-21T16:05:29.459Z,1.30
2023-05-21T16:10:31.895Z,0.95
2023-05-21T16:15:34.614Z,4.38
2023-05-21T16:20:37.206Z,2.38
2023-05-21T16:25:41.053Z,1.00
2023-05-21T16:30:44.056Z,0.70
2023-05-21T16:35:46.930Z,1.00
2023-05-21T16:40:50.633Z,1.10
2023-05-21T16:45:54.225Z,1.00
2023-05-21T16:50:57.190Z,1.30
2023-05-21T16:56:00.129Z,0.90
2023-05-21T17:01:04.135Z,1.13
2023-05-21T17:06:07.858Z,1.40
2023-05-21T17:11:11.042Z,3.08
2023-05-21T17:16:13.777Z,2.40
2023-05-21T17:21:16.220Z,1.80
2023-05-21T17:26:19.341Z,2.50
2023-05-21T17:31:22.473Z,6.10
2023-05-21T17:36:25.341Z,5.50
2023-05-21T17:41:27.798Z,7.50
2023-05-21T17:46:30.764Z,8.93
2023-05-21T17:51:33.520Z,7.30
2023-05-21T17:56:39.628Z,7.60
2023-05-21T18:01:42.302Z,6.95
2023-05-21T18:06:45.922Z,5.97
2023-05-21T18:11:48.391Z,6.00
2023-05-21T18:16:50.905Z,6.03
2023-05-21T18:21:53.395Z,3.58
2023-05-21T18:26:56.450Z,1.83
2023-05-21T18:31:58.918Z,3.28
2023-05-21T18:37:01.375Z,5.18
2023-05-21T18:42:12.849Z,3.88
2023-05-21T18:47:15.879Z,2.90
2023-05-21T18:52:18.422Z,2.78
2023-05-21T18:57:21.410Z,2.53
2023-05-21T19:02:24.696Z,2.40
2023-05-21T19:07:27.138Z,2.33
2023-05-21T19:12:31.689Z,1.90
2023-05-21T19:17:36.442Z,2.10
2023-05-21T19:22:40.161Z,2.05
2023-05-21T19:27:42.739Z,2.00
2023-05-21T19:32:46.393Z,2.50
2023-05-21T19:37:48.869Z,1.85
2023-05-21T19:42:51.265Z,2.50
2023-05-21T19:47:54.532Z,2.33
2023-05-21T19:52:58.728Z,1.80
2023-05-21T19:58:01.853Z,7.50
2023-05-21T20:03:04.600Z,2.38
2023-05-21T20:08:07.017Z,2.47
2023-05-21T20:13:10.671Z,3.92
2023-05-21T20:18:13.214Z,3.75
2023-05-21T20:23:16.743Z,3.53
2023-05-21T20:28:21.175Z,3.75
2023-05-21T20:33:27.556Z,2.50
2023-05-21T20:38:33.385Z,2.67
2023-05-21T20:43:37.585Z,2.05
2023-05-21T20:48:41.954Z,2.45
2023-05-21T20:53:46.705Z,3.00
2023-05-21T20:58:49.064Z,2.08
2023-05-21T21:03:51.863Z,2.28
2023-05-21T21:08:55.801Z,3.10
2023-05-21T21:14:00.270Z,2.42
2023-05-21T21:19:03.313Z,2.35
2023-05-21T21:24:06.605Z,2.13
2023-05-21T21:29:08.983Z,4.25
2023-05-21T21:34:11.559Z,1.90
2023-05-21T21:39:14.144Z,2.95
2023-05-21T21:44:16.590Z,1.77
2023-05-21T21:49:19.148Z,1.92
2023-05-21T21:54:21.496Z,2.55
2023-05-21T21:59:24.498Z,2.53
2023-05-21T22:04:27.527Z,3.45
2023-05-21T22:09:30.094Z,2.83
2023-05-21T22:14:32.451Z,3.75
2023-05-21T22:19:36.136Z,4.13
2023-05-21T22:24:39.536Z,3.75
2023-05-21T22:29:42.095Z,2.92
2023-05-21T22:34:44.678Z,2.40
2023-05-21T22:39:47.669Z,2.70
2023-05-21T22:44:50.845Z,2.25
2023-05-21T22:49:54.068Z,1.38
2023-05-21T22:54:58.113Z,1.73
2023-05-21T23:00:00.556Z,1.40
2023-05-21T23:05:02.962Z,1.42
2023-05-21T23:10:06.939Z,1.25
2023-05-21T23:15:11.015Z,1.45
2023-05-21T23:20:13.562Z,1.52
2023-05-21T23:25:17.677Z,1.77
2023-05-21T23:30:20.676Z,1.42
2023-05-21T23:35:24.830Z,2.05
2023-05-21T23:40:27.720Z,1.35
2023-05-21T23:45:32.310Z,1.20
2023-05-21T23:50:35.334Z,1.20
2023-05-21T23:55:38.340Z,1.63
